sensor_id;sensor_type;location;lat;lon;timestamp;P1;durP1;ratioP1;P2;durP2;ratioP2
45618;SDS011;31343;47.520;19.144;2023-02-18T00:01:31;6.63;;;4.10;;
45618;SDS011;31343;47.520;19.144;2023-02-18T00:03:58;5.93;;;3.83;;
45618;SDS011;31343;47.520;19.144;2023-02-18T00:06:30;6.03;;;3.58;;
45618;SDS011;31343;47.520;19.144;2023-02-18T00:08:59;8.20;;;4.03;;
45618;SDS011;31343;47.520;19.144;2023-02-18T00:11:26;5.78;;;3.08;;
45618;SDS011;31343;47.520;19.144;2023-02-18T00:13:57;7.70;;;3.60;;
45618;SDS011;31343;47.520;19.144;2023-02-18T00:16:25;5.28;;;2.72;;
45618;SDS011;31343;47.520;19.144;2023-02-18T00:18:58;4.97;;;2.88;;
45618;SDS011;31343;47.520;19.144;2023-02-18T00:21:31;4.65;;;2.60;;
45618;SDS011;31343;47.520;19.144;2023-02-18T00:23:59;5.30;;;2.38;;
45618;SDS011;31343;47.520;19.144;2023-02-18T00:26:31;3.33;;;1.98;;
45618;SDS011;31343;47.520;19.144;2023-02-18T00:28:57;3.60;;;2.00;;
45618;SDS011;31343;47.520;19.144;2023-02-18T00:31:26;3.05;;;1.73;;
45618;SDS011;31343;47.520;19.144;2023-02-18T00:33:56;5.43;;;2.30;;
45618;SDS011;31343;47.520;19.144;2023-02-18T00:36:23;7.50;;;1.73;;
45618;SDS011;31343;47.520;19.144;2023-02-18T00:38:50;5.25;;;2.05;;
45618;SDS011;31343;47.520;19.144;2023-02-18T00:41:18;3.78;;;2.05;;
45618;SDS011;31343;47.520;19.144;2023-02-18T00:43:45;3.40;;;1.73;;
45618;SDS011;31343;47.520;19.144;2023-02-18T00:46:11;2.97;;;1.95;;
45618;SDS011;31343;47.520;19.144;2023-02-18T00:48:41;4.75;;;2.10;;
45618;SDS011;31343;47.520;19.144;2023-02-18T00:51:08;3.03;;;1.83;;
45618;SDS011;31343;47.520;19.144;2023-02-18T00:53:34;4.28;;;2.50;;
45618;SDS011;31343;47.520;19.144;2023-02-18T00:56:01;3.30;;;1.98;;
45618;SDS011;31343;47.520;19.144;2023-02-18T00:58:29;3.05;;;1.65;;
45618;SDS011;31343;47.520;19.144;2023-02-18T01:00:55;5.68;;;2.10;;
45618;SDS011;31343;47.520;19.144;2023-02-18T01:03:22;3.25;;;1.60;;
45618;SDS011;31343;47.520;19.144;2023-02-18T01:05:51;2.58;;;1.48;;
45618;SDS011;31343;47.520;19.144;2023-02-18T01:08:17;2.83;;;1.85;;
45618;SDS011;31343;47.520;19.144;2023-02-18T01:10:47;2.63;;;1.50;;
45618;SDS011;31343;47.520;19.144;2023-02-18T01:13:16;2.72;;;1.35;;
45618;SDS011;31343;47.520;19.144;2023-02-18T01:15:42;2.55;;;1.52;;
45618;SDS011;31343;47.520;19.144;2023-02-18T01:18:09;3.13;;;1.20;;
45618;SDS011;31343;47.520;19.144;2023-02-18T01:20:40;2.25;;;1.10;;
45618;SDS011;31343;47.520;19.144;2023-02-18T01:23:08;2.63;;;1.30;;
45618;SDS011;31343;47.520;19.144;2023-02-18T01:25:35;3.42;;;1.27;;
45618;SDS011;31343;47.520;19.144;2023-02-18T01:28:04;2.42;;;1.45;;
45618;SDS011;31343;47.520;19.144;2023-02-18T01:30:31;4.43;;;1.20;;
45618;SDS011;31343;47.520;19.144;2023-02-18T01:32:59;2.53;;;0.95;;
45618;SDS011;31343;47.520;19.144;2023-02-18T01:35:25;3.65;;;1.30;;
45618;SDS011;31343;47.520;19.144;2023-02-18T01:37:52;2.33;;;1.00;;
45618;SDS011;31343;47.520;19.144;2023-02-18T01:40:22;2.35;;;0.90;;
45618;SDS011;31343;47.520;19.144;2023-02-18T01:42:51;2.28;;;1.05;;
45618;SDS011;31343;47.520;19.144;2023-02-18T01:48:22;1.95;;;0.80;;
45618;SDS011;31343;47.520;19.144;2023-02-18T01:51:03;1.67;;;0.90;;
45618;SDS011;31343;47.520;19.144;2023-02-18T01:53:47;2.97;;;0.85;;
45618;SDS011;31343;47.520;19.144;2023-02-18T01:56:28;2.85;;;0.93;;
45618;SDS011;31343;47.520;19.144;2023-02-18T01:59:01;2.08;;;1.25;;
45618;SDS011;31343;47.520;19.144;2023-02-18T02:01:31;2.55;;;0.80;;
45618;SDS011;31343;47.520;19.144;2023-02-18T02:04:04;1.17;;;0.70;;
45618;SDS011;31343;47.520;19.144;2023-02-18T02:06:32;2.35;;;0.90;;
45618;SDS011;31343;47.520;19.144;2023-02-18T02:08:58;1.65;;;1.00;;
45618;SDS011;31343;47.520;19.144;2023-02-18T02:24:57;1.60;;;0.93;;
45618;SDS011;31343;47.520;19.144;2023-02-18T02:36:14;1.65;;;1.00;;
45618;SDS011;31343;47.520;19.144;2023-02-18T02:41:57;1.85;;;0.80;;
45618;SDS011;31343;47.520;19.144;2023-02-18T02:44:51;1.85;;;0.60;;
45618;SDS011;31343;47.520;19.144;2023-02-18T02:47:31;1.73;;;0.70;;
45618;SDS011;31343;47.520;19.144;2023-02-18T02:53:16;1.45;;;0.80;;
45618;SDS011;31343;47.520;19.144;2023-02-18T02:55:55;1.27;;;0.80;;
45618;SDS011;31343;47.520;19.144;2023-02-18T02:58:21;2.30;;;0.85;;
45618;SDS011;31343;47.520;19.144;2023-02-18T03:01:07;1.27;;;0.80;;
45618;SDS011;31343;47.520;19.144;2023-02-18T03:03:58;1.80;;;1.13;;
45618;SDS011;31343;47.520;19.144;2023-02-18T03:09:39;1.90;;;0.82;;
45618;SDS011;31343;47.520;19.144;2023-02-18T03:12:29;1.75;;;0.90;;
45618;SDS011;31343;47.520;19.144;2023-02-18T03:21:05;2.30;;;0.98;;
45618;SDS011;31343;47.520;19.144;2023-02-18T03:23:40;1.13;;;0.82;;
45618;SDS011;31343;47.520;19.144;2023-02-18T03:26:11;2.30;;;0.95;;
45618;SDS011;31343;47.520;19.144;2023-02-18T03:28:41;1.80;;;1.38;;
45618;SDS011;31343;47.520;19.144;2023-02-18T03:31:11;1.38;;;0.80;;
45618;SDS011;31343;47.520;19.144;2023-02-18T03:33:54;1.70;;;0.90;;
45618;SDS011;31343;47.520;19.144;2023-02-18T03:36:33;3.35;;;0.80;;
45618;SDS011;31343;47.520;19.144;2023-02-18T03:39:07;2.00;;;0.80;;
45618;SDS011;31343;47.520;19.144;2023-02-18T03:41:39;0.95;;;0.73;;
45618;SDS011;31343;47.520;19.144;2023-02-18T03:44:06;1.60;;;0.80;;
45618;SDS011;31343;47.520;19.144;2023-02-18T03:46:36;1.33;;;0.80;;
45618;SDS011;31343;47.520;19.144;2023-02-18T03:49:03;1.15;;;0.80;;
45618;SDS011;31343;47.520;19.144;2023-02-18T03:51:29;2.35;;;0.77;;
45618;SDS011;31343;47.520;19.144;2023-02-18T03:53:56;1.50;;;0.75;;
45618;SDS011;31343;47.520;19.144;2023-02-18T03:56:21;0.77;;;0.70;;
45618;SDS011;31343;47.520;19.144;2023-02-18T03:58:48;1.30;;;0.80;;
45618;SDS011;31343;47.520;19.144;2023-02-18T04:01:14;1.85;;;1.35;;
45618;SDS011;31343;47.520;19.144;2023-02-18T04:03:40;1.65;;;0.82;;
45618;SDS011;31343;47.520;19.144;2023-02-18T04:06:06;1.73;;;0.90;;
45618;SDS011;31343;47.520;19.144;2023-02-18T04:08:32;1.10;;;0.80;;
45618;SDS011;31343;47.520;19.144;2023-02-18T04:10:57;1.38;;;0.70;;
45618;SDS011;31343;47.520;19.144;2023-02-18T04:13:23;2.90;;;0.88;;
45618;SDS011;31343;47.520;19.144;2023-02-18T04:15:49;1.08;;;0.73;;
45618;SDS011;31343;47.520;19.144;2023-02-18T04:18:17;2.13;;;0.70;;
45618;SDS011;31343;47.520;19.144;2023-02-18T04:20:45;1.27;;;0.80;;
45618;SDS011;31343;47.520;19.144;2023-02-18T04:23:11;1.45;;;0.80;;
45618;SDS011;31343;47.520;19.144;2023-02-18T04:25:39;1.30;;;0.70;;
45618;SDS011;31343;47.520;19.144;2023-02-18T04:28:05;0.98;;;0.85;;
45618;SDS011;31343;47.520;19.144;2023-02-18T04:30:31;1.42;;;0.80;;
45618;SDS011;31343;47.520;19.144;2023-02-18T04:32:57;0.90;;;0.82;;
45618;SDS011;31343;47.520;19.144;2023-02-18T04:35:23;1.80;;;0.98;;
45618;SDS011;31343;47.520;19.144;2023-02-18T04:37:49;1.73;;;0.90;;
45618;SDS011;31343;47.520;19.144;2023-02-18T04:40:15;1.90;;;1.00;;
45618;SDS011;31343;47.520;19.144;2023-02-18T04:42:42;0.95;;;0.70;;
45618;SDS011;31343;47.520;19.144;2023-02-18T04:45:09;1.70;;;0.90;;
45618;SDS011;31343;47.520;19.144;2023-02-18T04:47:36;1.45;;;0.90;;
45618;SDS011;31343;47.520;19.144;2023-02-18T04:50:03;1.63;;;0.70;;
45618;SDS011;31343;47.520;19.144;2023-02-18T04:52:31;1.33;;;0.75;;
45618;SDS011;31343;47.520;19.144;2023-02-18T04:55:01;2.10;;;0.63;;
45618;SDS011;31343;47.520;19.144;2023-02-18T04:57:38;2.15;;;0.80;;
45618;SDS011;31343;47.520;19.144;2023-02-18T05:00:05;1.95;;;0.80;;
45618;SDS011;31343;47.520;19.144;2023-02-18T05:02:35;3.92;;;1.23;;
45618;SDS011;31343;47.520;19.144;2023-02-18T05:05:00;1.38;;;0.65;;
45618;SDS011;31343;47.520;19.144;2023-02-18T05:07:26;1.52;;;0.90;;
45618;SDS011;31343;47.520;19.144;2023-02-18T05:09:52;2.22;;;0.80;;
45618;SDS011;31343;47.520;19.144;2023-02-18T05:12:18;1.65;;;0.77;;
45618;SDS011;31343;47.520;19.144;2023-02-18T05:14:46;2.70;;;1.00;;
45618;SDS011;31343;47.520;19.144;2023-02-18T05:17:11;1.75;;;0.63;;
45618;SDS011;31343;47.520;19.144;2023-02-18T05:19:38;2.42;;;1.00;;
45618;SDS011;31343;47.520;19.144;2023-02-18T05:22:04;2.67;;;1.25;;
45618;SDS011;31343;47.520;19.144;2023-02-18T05:24:30;1.13;;;0.63;;
45618;SDS011;31343;47.520;19.144;2023-02-18T05:26:56;1.92;;;0.88;;
45618;SDS011;31343;47.520;19.144;2023-02-18T05:29:23;1.17;;;0.70;;
45618;SDS011;31343;47.520;19.144;2023-02-18T05:31:49;2.50;;;1.00;;
45618;SDS011;31343;47.520;19.144;2023-02-18T05:34:16;1.27;;;0.75;;
45618;SDS011;31343;47.520;19.144;2023-02-18T05:36:43;2.03;;;1.10;;
45618;SDS011;31343;47.520;19.144;2023-02-18T05:39:09;1.80;;;1.15;;
45618;SDS011;31343;47.520;19.144;2023-02-18T05:41:35;1.40;;;0.80;;
45618;SDS011;31343;47.520;19.144;2023-02-18T05:44:01;1.88;;;1.10;;
45618;SDS011;31343;47.520;19.144;2023-02-18T05:46:45;1.73;;;1.00;;
45618;SDS011;31343;47.520;19.144;2023-02-18T05:49:11;1.50;;;0.80;;
45618;SDS011;31343;47.520;19.144;2023-02-18T05:51:37;2.20;;;0.90;;
45618;SDS011;31343;47.520;19.144;2023-02-18T05:54:05;1.70;;;0.90;;
45618;SDS011;31343;47.520;19.144;2023-02-18T05:56:30;1.67;;;0.90;;
45618;SDS011;31343;47.520;19.144;2023-02-18T05:58:56;4.15;;;1.08;;
45618;SDS011;31343;47.520;19.144;2023-02-18T06:01:22;2.17;;;1.45;;
45618;SDS011;31343;47.520;19.144;2023-02-18T06:03:48;2.55;;;1.10;;
45618;SDS011;31343;47.520;19.144;2023-02-18T06:06:13;1.38;;;1.00;;
45618;SDS011;31343;47.520;19.144;2023-02-18T06:08:40;2.50;;;1.20;;
45618;SDS011;31343;47.520;19.144;2023-02-18T06:11:06;2.08;;;1.17;;
45618;SDS011;31343;47.520;19.144;2023-02-18T06:13:32;1.90;;;1.00;;
45618;SDS011;31343;47.520;19.144;2023-02-18T06:15:57;2.38;;;1.20;;
45618;SDS011;31343;47.520;19.144;2023-02-18T06:18:25;2.00;;;1.20;;
45618;SDS011;31343;47.520;19.144;2023-02-18T06:20:51;1.58;;;0.98;;
45618;SDS011;31343;47.520;19.144;2023-02-18T06:23:18;5.07;;;1.00;;
45618;SDS011;31343;47.520;19.144;2023-02-18T06:25:46;2.00;;;1.08;;
45618;SDS011;31343;47.520;19.144;2023-02-18T06:28:15;2.30;;;1.05;;
45618;SDS011;31343;47.520;19.144;2023-02-18T06:30:41;2.08;;;1.02;;
45618;SDS011;31343;47.520;19.144;2023-02-18T06:33:12;1.55;;;1.00;;
45618;SDS011;31343;47.520;19.144;2023-02-18T06:35:38;1.70;;;1.05;;
45618;SDS011;31343;47.520;19.144;2023-02-18T06:38:04;1.52;;;0.95;;
45618;SDS011;31343;47.520;19.144;2023-02-18T06:40:30;1.77;;;0.90;;
45618;SDS011;31343;47.520;19.144;2023-02-18T06:42:59;1.33;;;0.70;;
45618;SDS011;31343;47.520;19.144;2023-02-18T06:45:24;1.98;;;1.08;;
45618;SDS011;31343;47.520;19.144;2023-02-18T06:47:50;3.10;;;0.98;;
45618;SDS011;31343;47.520;19.144;2023-02-18T06:50:16;1.30;;;0.88;;
45618;SDS011;31343;47.520;19.144;2023-02-18T06:52:43;1.73;;;0.90;;
45618;SDS011;31343;47.520;19.144;2023-02-18T06:55:11;1.30;;;0.90;;
45618;SDS011;31343;47.520;19.144;2023-02-18T06:57:43;1.77;;;1.00;;
45618;SDS011;31343;47.520;19.144;2023-02-18T07:00:09;1.90;;;0.88;;
45618;SDS011;31343;47.520;19.144;2023-02-18T07:02:37;1.73;;;0.70;;
45618;SDS011;31343;47.520;19.144;2023-02-18T07:05:04;1.52;;;0.85;;
45618;SDS011;31343;47.520;19.144;2023-02-18T07:07:31;1.17;;;0.70;;
45618;SDS011;31343;47.520;19.144;2023-02-18T07:09:57;1.20;;;0.80;;
45618;SDS011;31343;47.520;19.144;2023-02-18T07:12:22;1.52;;;0.75;;
45618;SDS011;31343;47.520;19.144;2023-02-18T07:14:49;1.75;;;0.70;;
45618;SDS011;31343;47.520;19.144;2023-02-18T07:17:15;1.40;;;0.70;;
45618;SDS011;31343;47.520;19.144;2023-02-18T07:19:40;0.90;;;0.60;;
45618;SDS011;31343;47.520;19.144;2023-02-18T07:22:07;1.75;;;0.70;;
45618;SDS011;31343;47.520;19.144;2023-02-18T07:24:33;1.60;;;0.80;;
45618;SDS011;31343;47.520;19.144;2023-02-18T07:26:58;0.88;;;0.60;;
45618;SDS011;31343;47.520;19.144;2023-02-18T07:29:25;1.33;;;0.80;;
45618;SDS011;31343;47.520;19.144;2023-02-18T07:31:51;2.28;;;0.80;;
45618;SDS011;31343;47.520;19.144;2023-02-18T07:34:19;1.73;;;0.85;;
45618;SDS011;31343;47.520;19.144;2023-02-18T07:36:44;1.63;;;0.80;;
45618;SDS011;31343;47.520;19.144;2023-02-18T07:39:10;1.08;;;0.82;;
45618;SDS011;31343;47.520;19.144;2023-02-18T07:41:36;2.00;;;0.95;;
45618;SDS011;31343;47.520;19.144;2023-02-18T07:44:02;2.35;;;0.98;;
45618;SDS011;31343;47.520;19.144;2023-02-18T07:46:30;1.45;;;0.88;;
45618;SDS011;31343;47.520;19.144;2023-02-18T07:48:57;1.85;;;0.93;;
45618;SDS011;31343;47.520;19.144;2023-02-18T07:51:26;1.42;;;0.75;;
45618;SDS011;31343;47.520;19.144;2023-02-18T07:53:51;1.17;;;0.70;;
45618;SDS011;31343;47.520;19.144;2023-02-18T07:56:17;1.55;;;0.90;;
45618;SDS011;31343;47.520;19.144;2023-02-18T07:58:43;2.80;;;1.17;;
45618;SDS011;31343;47.520;19.144;2023-02-18T08:01:10;2.60;;;1.10;;
45618;SDS011;31343;47.520;19.144;2023-02-18T08:03:39;2.33;;;1.15;;
45618;SDS011;31343;47.520;19.144;2023-02-18T08:06:06;1.77;;;1.08;;
45618;SDS011;31343;47.520;19.144;2023-02-18T08:08:33;1.55;;;0.90;;
45618;SDS011;31343;47.520;19.144;2023-02-18T08:11:00;1.65;;;0.80;;
45618;SDS011;31343;47.520;19.144;2023-02-18T08:13:31;1.25;;;0.75;;
45618;SDS011;31343;47.520;19.144;2023-02-18T08:15:57;1.70;;;0.80;;
45618;SDS011;31343;47.520;19.144;2023-02-18T08:18:24;1.55;;;0.70;;
45618;SDS011;31343;47.520;19.144;2023-02-18T08:20:52;2.88;;;0.90;;
45618;SDS011;31343;47.520;19.144;2023-02-18T08:23:19;1.77;;;0.98;;
45618;SDS011;31343;47.520;19.144;2023-02-18T08:25:49;1.13;;;0.70;;
45618;SDS011;31343;47.520;19.144;2023-02-18T08:28:17;0.90;;;0.77;;
45618;SDS011;31343;47.520;19.144;2023-02-18T08:30:45;0.60;;;0.60;;
45618;SDS011;31343;47.520;19.144;2023-02-18T08:33:11;1.10;;;0.75;;
45618;SDS011;31343;47.520;19.144;2023-02-18T08:35:37;1.98;;;1.27;;
45618;SDS011;31343;47.520;19.144;2023-02-18T08:38:03;1.65;;;0.70;;
45618;SDS011;31343;47.520;19.144;2023-02-18T08:40:29;1.45;;;0.80;;
45618;SDS011;31343;47.520;19.144;2023-02-18T08:42:55;0.80;;;0.50;;
45618;SDS011;31343;47.520;19.144;2023-02-18T08:45:20;2.05;;;0.88;;
45618;SDS011;31343;47.520;19.144;2023-02-18T08:47:46;1.75;;;0.70;;
45618;SDS011;31343;47.520;19.144;2023-02-18T08:50:12;2.30;;;0.73;;
45618;SDS011;31343;47.520;19.144;2023-02-18T08:52:38;1.58;;;0.90;;
45618;SDS011;31343;47.520;19.144;2023-02-18T08:55:04;1.45;;;0.77;;
45618;SDS011;31343;47.520;19.144;2023-02-18T08:57:30;1.50;;;0.88;;
45618;SDS011;31343;47.520;19.144;2023-02-18T08:59:56;1.65;;;0.80;;
45618;SDS011;31343;47.520;19.144;2023-02-18T09:02:22;2.97;;;0.80;;
45618;SDS011;31343;47.520;19.144;2023-02-18T09:04:47;1.60;;;0.80;;
45618;SDS011;31343;47.520;19.144;2023-02-18T09:07:13;1.88;;;1.05;;
45618;SDS011;31343;47.520;19.144;2023-02-18T09:09:39;1.05;;;0.70;;
45618;SDS011;31343;47.520;19.144;2023-02-18T09:12:06;2.60;;;0.98;;
45618;SDS011;31343;47.520;19.144;2023-02-18T09:14:32;1.77;;;0.85;;
45618;SDS011;31343;47.520;19.144;2023-02-18T09:16:58;1.50;;;0.80;;
45618;SDS011;31343;47.520;19.144;2023-02-18T09:19:24;2.95;;;1.33;;
45618;SDS011;31343;47.520;19.144;2023-02-18T09:21:50;1.60;;;0.90;;
45618;SDS011;31343;47.520;19.144;2023-02-18T09:24:21;2.03;;;0.80;;
45618;SDS011;31343;47.520;19.144;2023-02-18T09:26:48;1.48;;;0.77;;
45618;SDS011;31343;47.520;19.144;2023-02-18T09:29:15;1.02;;;0.90;;
45618;SDS011;31343;47.520;19.144;2023-02-18T09:31:42;1.38;;;0.77;;
45618;SDS011;31343;47.520;19.144;2023-02-18T09:34:08;1.52;;;0.65;;
45618;SDS011;31343;47.520;19.144;2023-02-18T09:36:33;1.08;;;0.60;;
45618;SDS011;31343;47.520;19.144;2023-02-18T09:38:59;2.25;;;1.00;;
45618;SDS011;31343;47.520;19.144;2023-02-18T09:44:12;1.50;;;1.00;;
45618;SDS011;31343;47.520;19.144;2023-02-18T09:46:49;1.13;;;0.70;;
45618;SDS011;31343;47.520;19.144;2023-02-18T09:49:26;1.15;;;0.63;;
45618;SDS011;31343;47.520;19.144;2023-02-18T09:51:59;2.28;;;1.00;;
45618;SDS011;31343;47.520;19.144;2023-02-18T09:54:48;1.63;;;0.90;;
45618;SDS011;31343;47.520;19.144;2023-02-18T09:57:22;1.45;;;0.80;;
45618;SDS011;31343;47.520;19.144;2023-02-18T10:00:04;1.30;;;0.65;;
45618;SDS011;31343;47.520;19.144;2023-02-18T10:02:55;1.45;;;0.68;;
45618;SDS011;31343;47.520;19.144;2023-02-18T10:05:51;0.95;;;0.63;;
45618;SDS011;31343;47.520;19.144;2023-02-18T10:08:29;0.90;;;0.68;;
45618;SDS011;31343;47.520;19.144;2023-02-18T10:11:01;2.88;;;0.82;;
45618;SDS011;31343;47.520;19.144;2023-02-18T10:13:28;1.35;;;0.77;;
45618;SDS011;31343;47.520;19.144;2023-02-18T10:15:56;1.75;;;0.65;;
45618;SDS011;31343;47.520;19.144;2023-02-18T10:18:26;1.23;;;0.73;;
45618;SDS011;31343;47.520;19.144;2023-02-18T10:21:37;1.60;;;0.73;;
45618;SDS011;31343;47.520;19.144;2023-02-18T10:26:24;1.15;;;0.70;;
45618;SDS011;31343;47.520;19.144;2023-02-18T10:28:50;1.02;;;0.60;;
45618;SDS011;31343;47.520;19.144;2023-02-18T10:31:24;2.53;;;1.20;;
45618;SDS011;31343;47.520;19.144;2023-02-18T10:40:46;1.25;;;0.60;;
45618;SDS011;31343;47.520;19.144;2023-02-18T10:43:06;2.10;;;0.88;;
45618;SDS011;31343;47.520;19.144;2023-02-18T10:51:25;2.30;;;0.70;;
45618;SDS011;31343;47.520;19.144;2023-02-18T10:53:55;1.48;;;1.00;;
45618;SDS011;31343;47.520;19.144;2023-02-18T11:01:44;2.33;;;0.95;;
45618;SDS011;31343;47.520;19.144;2023-02-18T11:04:24;1.73;;;0.73;;
45618;SDS011;31343;47.520;19.144;2023-02-18T11:06:52;2.72;;;0.73;;
45618;SDS011;31343;47.520;19.144;2023-02-18T11:09:26;0.90;;;0.60;;
45618;SDS011;31343;47.520;19.144;2023-02-18T11:12:01;2.25;;;0.90;;
45618;SDS011;31343;47.520;19.144;2023-02-18T11:14:39;1.45;;;0.80;;
45618;SDS011;31343;47.520;19.144;2023-02-18T11:17:26;1.50;;;0.70;;
45618;SDS011;31343;47.520;19.144;2023-02-18T11:20:11;2.35;;;1.10;;
45618;SDS011;31343;47.520;19.144;2023-02-18T11:22:57;1.90;;;0.70;;
45618;SDS011;31343;47.520;19.144;2023-02-18T11:25:37;1.33;;;0.68;;
45618;SDS011;31343;47.520;19.144;2023-02-18T11:30:45;1.20;;;0.70;;
45618;SDS011;31343;47.520;19.144;2023-02-18T11:36:38;2.10;;;0.90;;
45618;SDS011;31343;47.520;19.144;2023-02-18T11:39:17;1.63;;;0.80;;
45618;SDS011;31343;47.520;19.144;2023-02-18T11:41:54;1.48;;;1.00;;
45618;SDS011;31343;47.520;19.144;2023-02-18T11:44:32;2.38;;;1.05;;
45618;SDS011;31343;47.520;19.144;2023-02-18T11:47:20;2.65;;;1.25;;
45618;SDS011;31343;47.520;19.144;2023-02-18T11:52:37;1.40;;;0.98;;
45618;SDS011;31343;47.520;19.144;2023-02-18T12:00:44;1.70;;;0.90;;
45618;SDS011;31343;47.520;19.144;2023-02-18T12:09:04;2.08;;;1.05;;
45618;SDS011;31343;47.520;19.144;2023-02-18T12:12:00;3.17;;;1.00;;
45618;SDS011;31343;47.520;19.144;2023-02-18T12:14:36;2.22;;;1.20;;
45618;SDS011;31343;47.520;19.144;2023-02-18T12:17:11;1.98;;;1.00;;
45618;SDS011;31343;47.520;19.144;2023-02-18T12:31:21;2.03;;;1.00;;
45618;SDS011;31343;47.520;19.144;2023-02-18T12:34:05;1.67;;;0.82;;
45618;SDS011;31343;47.520;19.144;2023-02-18T12:37:13;1.67;;;1.00;;
45618;SDS011;31343;47.520;19.144;2023-02-18T12:42:59;2.40;;;1.10;;
45618;SDS011;31343;47.520;19.144;2023-02-18T12:55:04;1.48;;;0.70;;
45618;SDS011;31343;47.520;19.144;2023-02-18T12:57:33;4.40;;;1.15;;
45618;SDS011;31343;47.520;19.144;2023-02-18T13:08:33;0.75;;;0.50;;
45618;SDS011;31343;47.520;19.144;2023-02-18T13:14:19;1.35;;;0.65;;
45618;SDS011;31343;47.520;19.144;2023-02-18T13:16:51;1.00;;;0.45;;
45618;SDS011;31343;47.520;19.144;2023-02-18T13:22:11;0.98;;;0.65;;
45618;SDS011;31343;47.520;19.144;2023-02-18T13:24:41;1.48;;;0.68;;
45618;SDS011;31343;47.520;19.144;2023-02-18T13:27:29;1.67;;;0.60;;
45618;SDS011;31343;47.520;19.144;2023-02-18T13:32:47;2.60;;;0.77;;
45618;SDS011;31343;47.520;19.144;2023-02-18T13:43:16;1.25;;;0.65;;
45618;SDS011;31343;47.520;19.144;2023-02-18T13:51:36;0.80;;;0.40;;
45618;SDS011;31343;47.520;19.144;2023-02-18T13:56:45;1.17;;;0.40;;
45618;SDS011;31343;47.520;19.144;2023-02-18T13:59:23;1.17;;;0.60;;
45618;SDS011;31343;47.520;19.144;2023-02-18T14:04:55;0.50;;;0.50;;
45618;SDS011;31343;47.520;19.144;2023-02-18T14:10:37;0.75;;;0.47;;
45618;SDS011;31343;47.520;19.144;2023-02-18T14:13:20;0.20;;;0.20;;
45618;SDS011;31343;47.520;19.144;2023-02-18T14:15:50;0.60;;;0.40;;
45618;SDS011;31343;47.520;19.144;2023-02-18T14:26:09;0.70;;;0.47;;
45618;SDS011;31343;47.520;19.144;2023-02-18T14:29:13;1.45;;;0.50;;
45618;SDS011;31343;47.520;19.144;2023-02-18T14:40:25;0.85;;;0.43;;
45618;SDS011;31343;47.520;19.144;2023-02-18T14:43:03;0.75;;;0.50;;
45618;SDS011;31343;47.520;19.144;2023-02-18T14:51:34;0.57;;;0.55;;
45618;SDS011;31343;47.520;19.144;2023-02-18T14:54:04;1.42;;;0.68;;
45618;SDS011;31343;47.520;19.144;2023-02-18T14:56:38;1.25;;;0.55;;
45618;SDS011;31343;47.520;19.144;2023-02-18T14:59:27;2.00;;;0.52;;
45618;SDS011;31343;47.520;19.144;2023-02-18T15:01:58;1.27;;;0.60;;
45618;SDS011;31343;47.520;19.144;2023-02-18T15:04:24;1.13;;;0.60;;
45618;SDS011;31343;47.520;19.144;2023-02-18T15:06:57;0.45;;;0.30;;
45618;SDS011;31343;47.520;19.144;2023-02-18T15:09:24;1.50;;;0.70;;
45618;SDS011;31343;47.520;19.144;2023-02-18T15:14:20;1.17;;;0.63;;
45618;SDS011;31343;47.520;19.144;2023-02-18T15:16:49;16.42;;;9.43;;
45618;SDS011;31343;47.520;19.144;2023-02-18T15:19:20;21.60;;;12.70;;
45618;SDS011;31343;47.520;19.144;2023-02-18T15:21:50;21.38;;;13.00;;
45618;SDS011;31343;47.520;19.144;2023-02-18T15:24:21;22.90;;;13.07;;
45618;SDS011;31343;47.520;19.144;2023-02-18T15:26:50;23.25;;;12.48;;
45618;SDS011;31343;47.520;19.144;2023-02-18T15:29:19;24.45;;;13.40;;
45618;SDS011;31343;47.520;19.144;2023-02-18T15:31:47;25.50;;;14.82;;
45618;SDS011;31343;47.520;19.144;2023-02-18T15:34:36;22.23;;;12.93;;
45618;SDS011;31343;47.520;19.144;2023-02-18T15:37:02;23.60;;;14.35;;
45618;SDS011;31343;47.520;19.144;2023-02-18T15:39:30;22.33;;;12.85;;
45618;SDS011;31343;47.520;19.144;2023-02-18T15:42:05;25.90;;;14.90;;
45618;SDS011;31343;47.520;19.144;2023-02-18T15:44:44;32.35;;;17.58;;
45618;SDS011;31343;47.520;19.144;2023-02-18T15:47:12;34.80;;;18.33;;
45618;SDS011;31343;47.520;19.144;2023-02-18T15:49:38;34.72;;;18.08;;
45618;SDS011;31343;47.520;19.144;2023-02-18T15:52:32;30.95;;;16.92;;
45618;SDS011;31343;47.520;19.144;2023-02-18T15:55:05;30.92;;;16.30;;
45618;SDS011;31343;47.520;19.144;2023-02-18T15:57:35;35.72;;;19.90;;
45618;SDS011;31343;47.520;19.144;2023-02-18T16:00:04;36.20;;;20.02;;
45618;SDS011;31343;47.520;19.144;2023-02-18T16:02:48;34.75;;;18.40;;
45618;SDS011;31343;47.520;19.144;2023-02-18T16:05:17;38.75;;;19.15;;
45618;SDS011;31343;47.520;19.144;2023-02-18T16:08:04;37.95;;;21.15;;
45618;SDS011;31343;47.520;19.144;2023-02-18T16:13:14;35.22;;;21.85;;
45618;SDS011;31343;47.520;19.144;2023-02-18T16:15:43;41.28;;;21.38;;
45618;SDS011;31343;47.520;19.144;2023-02-18T16:18:43;41.60;;;21.33;;
45618;SDS011;31343;47.520;19.144;2023-02-18T16:21:22;42.38;;;20.90;;
45618;SDS011;31343;47.520;19.144;2023-02-18T16:23:51;37.42;;;20.58;;
45618;SDS011;31343;47.520;19.144;2023-02-18T16:26:40;42.95;;;20.85;;
45618;SDS011;31343;47.520;19.144;2023-02-18T16:29:12;39.20;;;21.08;;
45618;SDS011;31343;47.520;19.144;2023-02-18T16:31:41;35.65;;;20.08;;
45618;SDS011;31343;47.520;19.144;2023-02-18T16:34:07;40.38;;;20.85;;
45618;SDS011;31343;47.520;19.144;2023-02-18T16:36:32;42.17;;;20.45;;
45618;SDS011;31343;47.520;19.144;2023-02-18T16:38:58;37.05;;;20.52;;
45618;SDS011;31343;47.520;19.144;2023-02-18T16:41:26;40.05;;;22.08;;
45618;SDS011;31343;47.520;19.144;2023-02-18T16:43:52;37.75;;;21.50;;
45618;SDS011;31343;47.520;19.144;2023-02-18T16:46:20;41.25;;;21.50;;
45618;SDS011;31343;47.520;19.144;2023-02-18T16:48:53;41.75;;;22.27;;
45618;SDS011;31343;47.520;19.144;2023-02-18T16:51:24;42.08;;;22.33;;
45618;SDS011;31343;47.520;19.144;2023-02-18T16:53:55;42.95;;;23.35;;
45618;SDS011;31343;47.520;19.144;2023-02-18T16:56:22;43.33;;;20.67;;
45618;SDS011;31343;47.520;19.144;2023-02-18T16:58:49;46.08;;;24.02;;
45618;SDS011;31343;47.520;19.144;2023-02-18T17:01:25;47.72;;;23.80;;
45618;SDS011;31343;47.520;19.144;2023-02-18T17:04:02;43.75;;;23.23;;
45618;SDS011;31343;47.520;19.144;2023-02-18T17:06:30;44.08;;;23.88;;
45618;SDS011;31343;47.520;19.144;2023-02-18T17:08:56;46.28;;;24.52;;
45618;SDS011;31343;47.520;19.144;2023-02-18T17:13:56;46.95;;;25.55;;
45618;SDS011;31343;47.520;19.144;2023-02-18T17:16:23;48.55;;;23.38;;
45618;SDS011;31343;47.520;19.144;2023-02-18T17:18:50;50.53;;;24.70;;
45618;SDS011;31343;47.520;19.144;2023-02-18T17:21:18;45.47;;;24.52;;
45618;SDS011;31343;47.520;19.144;2023-02-18T17:23:45;45.78;;;23.27;;
45618;SDS011;31343;47.520;19.144;2023-02-18T17:26:22;48.25;;;25.05;;
45618;SDS011;31343;47.520;19.144;2023-02-18T17:28:50;47.50;;;24.40;;
45618;SDS011;31343;47.520;19.144;2023-02-18T17:31:17;52.38;;;26.27;;
45618;SDS011;31343;47.520;19.144;2023-02-18T17:33:50;48.85;;;26.20;;
45618;SDS011;31343;47.520;19.144;2023-02-18T17:36:17;48.38;;;23.17;;
45618;SDS011;31343;47.520;19.144;2023-02-18T17:38:48;46.75;;;24.27;;
45618;SDS011;31343;47.520;19.144;2023-02-18T17:41:13;49.42;;;23.25;;
45618;SDS011;31343;47.520;19.144;2023-02-18T17:43:39;47.20;;;24.35;;
45618;SDS011;31343;47.520;19.144;2023-02-18T17:46:08;46.22;;;25.35;;
45618;SDS011;31343;47.520;19.144;2023-02-18T17:48:40;49.15;;;25.90;;